PDT,Max TemperatureF,Mean TemperatureF,Min TemperatureF,Max Dew PointF,MeanDew PointF,Min DewpointF,Max Humidity, Mean Humidity, Min Humidity, Max Sea Level PressureIn, Mean Sea Level PressureIn, Min Sea Level PressureIn, Max VisibilityMiles, Mean VisibilityMiles, Min VisibilityMiles, Max Wind SpeedMPH, Mean Wind SpeedMPH, Max Gust SpeedMPH,PrecipitationIn, CloudCover, Events, WindDirDegrees
2013-9-1,72,64,57,61,58,55,94,78,60,29.88,29.85,29.79,20,20,19,9,5,,0.00,2,,165
2013-9-2,71,66,60,63,59,57,88,82,64,29.93,29.89,29.85,20,19,15,12,6,,0.04,6,Rain,105
2013-9-3,70,64,58,63,60,57,100,90,67,30.04,30.00,29.94,20,16,5,12,3,21,0.35,7,Rain,256
2013-9-4,67,62,56,63,60,55,100,91,86,30.07,30.04,30.01,20,20,20,17,7,21,0.00,6,Rain,304
2013-9-5,64,60,55,61,60,55,100,93,85,30.06,29.99,29.91,20,17,12,18,8,23,0.04,7,Rain-Thunderstorm,309
2013-9-6,68,64,59,63,60,59,100,89,78,30.09,30.02,29.91,20,12,6,12,6,,0.02,7,Rain,129
2013-9-7,70,66,61,63,61,59,100,87,69,30.10,30.08,30.03,20,14,10,14,8,,0.00,5,,133
2013-9-8,68,62,55,64,60,55,100,90,79,30.12,30.08,30.03,20,9,3,9,4,,0.00,3,,186
2013-9-9,70,62,54,63,58,54,100,90,66,30.08,30.05,29.99,20,8,0,12,6,,0.00,2,Fog,177
2013-9-10,70,63,56,63,60,57,100,89,73,30.02,29.98,29.92,20,17,15,15,8,,0.00,0,,315
2013-9-11,75,66,56,64,61,55,94,84,59,29.99,29.94,29.89,20,17,15,10,5,,0.00,0,,310
2013-9-12,74,66,58,64,60,57,94,82,55,29.99,29.94,29.88,,,,12,4,,0.00,0,,162
2013-9-13,69,63,57,61,58,55,100,91,78,29.97,29.93,29.86,20,10,1,13,8,,0.00,5,,127
2013-9-14,63,60,58,60,58,57,100,94,88,29.90,29.84,29.77,6,3,0,13,6,,0.00,8,Fog,251
2013-9-15,62,60,59,61,59,57,100,96,88,29.78,29.74,29.71,12,4,0,16,5,21,0.28,8,Fog-Rain,129
2013-9-16,64,60,57,59,58,55,100,92,83,29.91,29.84,29.76,15,10,2,14,9,18,0.83,7,Rain-Thunderstorm,131
2013-9-17,64,59,53,57,55,51,100,87,64,29.91,29.88,29.84,20,14,7,13,5,,0.00,8,,118
2013-9-18,66,59,52,55,52,48,94,77,52,30.07,30.02,29.91,20,20,19,12,6,17,0.00,5,,129
2013-9-19,68,61,54,57,53,50,88,76,60,30.06,29.92,29.76,20,20,19,10,6,,0.00,6,,100
2013-9-20,66,60,53,57,53,48,100,80,58,29.75,29.66,29.58,20,16,5,9,7,,0.00,7,Rain,101
2013-9-21,66,60,54,57,55,52,100,86,60,29.71,29.67,29.63,20,13,6,10,7,,0.24,7,Rain,127
2013-9-22,61,58,54,55,53,52,100,89,77,29.66,29.58,29.50,15,9,2,22,12,32,0.31,7,Rain,137
2013-9-23,62,56,51,54,50,45,88,79,59,29.94,29.82,29.65,20,17,15,20,12,22,0.12,6,Rain,175
2013-9-24,59,54,48,50,49,46,94,84,63,29.94,29.90,29.85,20,16,15,10,8,,0.01,8,Rain,72
2013-9-25,59,52,46,52,49,45,93,83,71,30.01,29.94,29.88,20,14,12,22,11,25,0.02,3,Rain,330
2013-9-26,59,52,45,52,48,45,94,82,62,30.13,30.09,30.02,20,20,20,12,6,,0.00,2,,4
2013-9-27,54,52,50,52,50,46,94,90,80,30.09,29.96,29.83,20,12,6,13,10,18,0.35,8,Rain,90
2013-9-28,57,54,50,55,51,48,100,92,78,29.81,29.49,29.26,15,9,2,23,12,32,0.83,8,Rain-Thunderstorm,127
2013-9-29,54,52,50,52,49,46,94,88,69,29.47,29.34,29.11,15,10,5,24,16,32,0.51,8,Rain,138
2013-9-30,57,54,50,50,46,45,88,80,72,29.84,29.60,29.26,15,14,10,23,16,31,0.08,7,Rain,172